createdAt,value
2023-04-23T00:00:19.139Z,2.35
2023-04-23T00:02:50.082Z,1.83
2023-04-23T00:05:17.060Z,3.45
2023-04-23T00:07:43.827Z,1.48
2023-04-23T00:10:11.115Z,1.25
2023-04-23T00:12:38.118Z,2.25
2023-04-23T00:15:06.819Z,2.10
2023-04-23T00:17:34.561Z,3.13
2023-04-23T00:20:01.229Z,2.03
2023-04-23T00:22:28.052Z,1.20
2023-04-23T00:24:54.719Z,1.48
2023-04-23T00:27:21.432Z,1.90
2023-04-23T00:29:48.257Z,2.40
2023-04-23T00:32:15.104Z,2.53
2023-04-23T00:34:42.132Z,2.78
2023-04-23T00:37:09.063Z,1.27
2023-04-23T00:39:38.593Z,2.88
2023-04-23T00:42:12.211Z,2.45
2023-04-23T00:44:39.294Z,3.70
2023-04-23T00:47:07.943Z,2.03
2023-04-23T00:49:36.621Z,1.85
2023-04-23T00:52:03.793Z,2.10
2023-04-23T00:54:31.127Z,3.50
2023-04-23T00:57:00.492Z,2.65
2023-04-23T00:59:27.320Z,1.50
2023-04-23T01:01:54.212Z,3.72
2023-04-23T01:04:21.437Z,1.45
2023-04-23T01:06:48.299Z,3.28
2023-04-23T01:09:15.709Z,1.63
2023-04-23T01:11:43.412Z,2.85
2023-04-23T01:14:10.581Z,2.50
2023-04-23T01:16:41.120Z,2.70
2023-04-23T01:19:09.348Z,2.28
2023-04-23T01:21:38.044Z,3.42
2023-04-23T01:24:05.170Z,3.10
2023-04-23T01:26:32.162Z,3.17
2023-04-23T01:28:59.903Z,1.88
2023-04-23T01:31:27.352Z,1.58
2023-04-23T01:33:55.377Z,4.32
2023-04-23T01:36:25.754Z,1.33
2023-04-23T01:38:53.175Z,1.15
2023-04-23T01:41:22.445Z,2.00
2023-04-23T01:43:49.150Z,1.85
2023-04-23T01:46:16.404Z,1.88
2023-04-23T01:48:43.158Z,2.25
2023-04-23T01:51:10.537Z,1.05
2023-04-23T01:53:37.258Z,2.03
2023-04-23T01:56:04.074Z,3.03
2023-04-23T01:58:30.766Z,2.47
2023-04-23T02:00:57.472Z,2.85
2023-04-23T02:03:24.333Z,1.10
2023-04-23T02:05:51.147Z,2.20
2023-04-23T02:08:17.885Z,2.47
2023-04-23T02:10:44.613Z,2.00
2023-04-23T02:13:11.677Z,1.33
2023-04-23T02:15:38.423Z,1.27
2023-04-23T02:18:05.768Z,1.23
2023-04-23T02:20:32.646Z,2.35
2023-04-23T02:22:59.346Z,2.35
2023-04-23T02:25:26.467Z,2.22
2023-04-23T02:27:53.267Z,1.17
2023-04-23T02:30:20.199Z,2.28
2023-04-23T02:32:46.949Z,1.48
2023-04-23T02:35:13.715Z,0.55
2023-04-23T02:37:40.831Z,1.48
2023-04-23T02:40:09.190Z,3.58
2023-04-23T02:42:35.921Z,2.78
2023-04-23T02:45:02.910Z,1.25
2023-04-23T02:47:31.203Z,1.40
2023-04-23T02:49:58.246Z,2.80
2023-04-23T02:52:25.220Z,1.77
2023-04-23T02:54:51.967Z,1.30
2023-04-23T02:57:19.182Z,1.65
2023-04-23T02:59:46.294Z,2.10
2023-04-23T03:02:14.276Z,1.38
2023-04-23T03:04:41.595Z,1.15
2023-04-23T03:07:08.654Z,1.73
2023-04-23T03:09:35.374Z,2.17
2023-04-23T03:12:02.390Z,0.77
2023-04-23T03:14:29.132Z,1.60
2023-04-23T03:16:56.005Z,4.13
2023-04-23T03:19:22.862Z,1.88
2023-04-23T03:21:49.595Z,1.88
2023-04-23T03:24:16.669Z,2.45
2023-04-23T03:26:43.535Z,3.10
2023-04-23T03:29:10.739Z,1.10
2023-04-23T03:31:37.535Z,1.65
2023-04-23T03:34:04.270Z,1.40
2023-04-23T03:36:31.022Z,1.45
2023-04-23T03:38:57.753Z,1.40
2023-04-23T03:41:24.413Z,1.40
2023-04-23T03:43:51.103Z,0.60
2023-04-23T03:46:17.835Z,1.73
2023-04-23T03:48:45.111Z,0.55
2023-04-23T03:51:12.170Z,1.08
2023-04-23T03:53:38.844Z,0.80
2023-04-23T03:56:05.760Z,1.48
2023-04-23T03:58:32.437Z,1.27
2023-04-23T04:00:59.162Z,1.33
2023-04-23T04:03:26.105Z,1.10
2023-04-23T04:05:53.049Z,1.75
2023-04-23T04:08:19.841Z,1.27
2023-04-23T04:10:47.995Z,2.08
2023-04-23T04:13:16.274Z,0.55
2023-04-23T04:15:43.704Z,1.25
2023-04-23T04:18:10.669Z,0.90
2023-04-23T04:20:37.471Z,1.60
2023-04-23T04:23:04.156Z,0.70
2023-04-23T04:25:30.997Z,0.85
2023-04-23T04:27:57.708Z,1.02
2023-04-23T04:30:24.855Z,0.82
2023-04-23T04:32:51.652Z,1.42
2023-04-23T04:35:19.048Z,3.10
2023-04-23T04:37:45.787Z,1.02
2023-04-23T04:40:12.797Z,2.33
2023-04-23T04:42:39.499Z,0.73
2023-04-23T04:45:12.524Z,1.20
2023-04-23T04:47:39.203Z,3.17
2023-04-23T04:50:06.470Z,1.23
2023-04-23T04:52:33.504Z,3.53
2023-04-23T04:55:00.181Z,2.80
2023-04-23T04:57:26.844Z,1.45
2023-04-23T04:59:53.922Z,4.30
2023-04-23T05:02:22.037Z,3.28
2023-04-23T05:04:49.952Z,1.88
2023-04-23T05:07:17.746Z,3.00
2023-04-23T05:09:45.276Z,5.13
2023-04-23T05:12:12.199Z,4.18
2023-04-23T05:14:38.986Z,1.80
2023-04-23T05:17:05.695Z,1.52
2023-04-23T05:19:32.547Z,2.22
2023-04-23T05:21:59.341Z,1.10
2023-04-23T05:24:26.477Z,0.65
2023-04-23T05:26:53.198Z,3.20
2023-04-23T05:29:20.093Z,0.93
2023-04-23T05:31:47.450Z,1.33
2023-04-23T05:34:14.333Z,1.65
2023-04-23T05:36:41.209Z,0.90
2023-04-23T05:39:08.414Z,1.90
2023-04-23T05:41:35.112Z,1.30
2023-04-23T05:44:01.855Z,1.67
2023-04-23T05:46:28.683Z,2.08
2023-04-23T05:48:55.491Z,1.00
2023-04-23T05:51:22.217Z,2.15
2023-04-23T05:53:49.660Z,1.00
2023-04-23T05:56:17.345Z,2.28
2023-04-23T05:58:44.940Z,0.57
2023-04-23T06:01:11.699Z,1.10
2023-04-23T06:03:38.826Z,1.50
2023-04-23T06:06:05.750Z,1.85
2023-04-23T06:08:32.474Z,2.22
2023-04-23T06:11:00.024Z,2.03
2023-04-23T06:13:28.169Z,1.23
2023-04-23T06:15:54.946Z,1.38
2023-04-23T06:18:21.667Z,1.70
2023-04-23T06:20:51.399Z,1.65
2023-04-23T06:23:19.494Z,1.95
2023-04-23T06:25:46.228Z,1.60
2023-04-23T06:28:13.001Z,2.05
2023-04-23T06:30:39.890Z,1.65
2023-04-23T06:33:06.635Z,1.60
2023-04-23T06:35:33.465Z,1.08
2023-04-23T06:38:00.239Z,2.22
2023-04-23T06:40:27.006Z,0.98
2023-04-23T06:42:53.791Z,1.73
2023-04-23T06:45:20.454Z,0.85
2023-04-23T06:47:49.276Z,0.98
2023-04-23T06:50:16.011Z,2.17
2023-04-23T06:52:43.197Z,1.23
2023-04-23T06:55:10.339Z,0.95
2023-04-23T06:57:37.015Z,3.72
2023-04-23T07:00:06.421Z,2.53
2023-04-23T07:02:33.217Z,0.80
2023-04-23T07:05:00.005Z,0.98
2023-04-23T07:07:26.773Z,0.80
2023-04-23T07:09:53.562Z,0.55
2023-04-23T07:12:20.335Z,2.08
2023-04-23T07:14:48.317Z,1.30
2023-04-23T07:17:15.037Z,2.45
2023-04-23T07:19:42.410Z,2.72
2023-04-23T07:22:09.121Z,1.35
2023-04-23T07:24:36.016Z,1.65
2023-04-23T07:27:04.045Z,1.60
2023-04-23T07:29:30.991Z,1.63
2023-04-23T07:31:57.738Z,0.90
2023-04-23T07:34:24.453Z,1.13
2023-04-23T07:36:52.080Z,1.98
2023-04-23T07:39:19.613Z,1.55
2023-04-23T07:41:46.906Z,1.23
2023-04-23T07:44:14.071Z,1.45
2023-04-23T07:46:40.782Z,1.50
2023-04-23T07:49:07.907Z,1.13
2023-04-23T07:51:34.686Z,0.93
2023-04-23T07:54:01.441Z,0.47
2023-04-23T07:56:28.269Z,0.77
2023-04-23T07:58:56.586Z,0.98
2023-04-23T08:01:23.314Z,0.70
2023-04-23T08:03:50.266Z,1.58
2023-04-23T08:06:18.511Z,2.63
2023-04-23T08:08:45.230Z,0.95
2023-04-23T08:11:11.980Z,0.88
2023-04-23T08:13:38.710Z,1.48
2023-04-23T08:16:05.695Z,2.97
2023-04-23T08:18:32.460Z,2.47
2023-04-23T08:20:59.517Z,1.50
2023-04-23T08:23:26.253Z,1.75
2023-04-23T08:25:53.063Z,1.60
2023-04-23T08:28:19.996Z,1.25
2023-04-23T08:30:47.443Z,0.98
2023-04-23T08:33:14.633Z,2.17
2023-04-23T08:35:41.317Z,1.55
2023-04-23T08:38:07.988Z,1.80
2023-04-23T08:40:36.392Z,2.50
2023-04-23T08:43:03.837Z,2.47
2023-04-23T08:45:31.151Z,0.82
2023-04-23T08:48:01.746Z,0.82
2023-04-23T08:50:30.193Z,1.00
2023-04-23T08:52:57.753Z,1.75
2023-04-23T08:55:24.764Z,2.20
2023-04-23T08:57:51.778Z,4.10
2023-04-23T09:00:20.253Z,2.80
2023-04-23T09:02:49.799Z,3.10
2023-04-23T09:05:17.834Z,3.67
2023-04-23T09:07:45.507Z,3.97
2023-04-23T09:10:15.313Z,3.05
2023-04-23T09:12:44.087Z,3.03
2023-04-23T09:15:11.917Z,4.32
2023-04-23T09:17:41.091Z,4.75
2023-04-23T09:20:11.568Z,6.00
2023-04-23T09:22:48.791Z,8.27
2023-04-23T09:25:18.090Z,4.03
2023-04-23T09:27:46.113Z,4.10
2023-04-23T09:30:13.314Z,4.05
2023-04-23T09:32:42.168Z,3.85
2023-04-23T09:35:13.707Z,5.13
2023-04-23T09:37:44.125Z,4.07
2023-04-23T09:40:11.096Z,3.33
2023-04-23T09:42:37.931Z,4.32
2023-04-23T09:45:06.630Z,4.03
2023-04-23T09:47:40.635Z,3.40
2023-04-23T09:50:10.374Z,4.97
2023-04-23T09:52:40.291Z,6.32
2023-04-23T09:55:07.407Z,3.55
2023-04-23T09:57:44.128Z,6.25
2023-04-23T10:00:20.699Z,4.78
2023-04-23T10:02:50.532Z,3.83
2023-04-23T10:05:24.927Z,6.30
2023-04-23T10:07:54.407Z,5.13
2023-04-23T10:10:21.258Z,2.70
2023-04-23T10:12:54.266Z,3.85
2023-04-23T10:15:21.868Z,3.90
2023-04-23T10:17:51.208Z,2.05
2023-04-23T10:20:19.194Z,3.78
2023-04-23T10:22:46.576Z,6.68
2023-04-23T10:25:13.438Z,3.50
2023-04-23T10:27:53.792Z,7.72
2023-04-23T10:30:21.923Z,3.88
2023-04-23T10:32:50.487Z,3.38
2023-04-23T10:35:17.426Z,3.78
2023-04-23T10:37:45.247Z,5.97
2023-04-23T10:40:16.435Z,3.47
2023-04-23T10:42:43.658Z,5.68
2023-04-23T10:45:23.467Z,6.15
2023-04-23T10:47:51.266Z,7.45
2023-04-23T10:50:22.465Z,5.63
2023-04-23T10:52:57.295Z,6.88
2023-04-23T10:55:29.013Z,4.10
2023-04-23T10:58:05.961Z,3.15
2023-04-23T11:00:41.555Z,4.20
2023-04-23T11:03:27.462Z,3.58
2023-04-23T11:05:54.587Z,4.28
2023-04-23T11:08:21.277Z,6.10
2023-04-23T11:10:58.914Z,6.57
2023-04-23T11:13:26.753Z,9.10
2023-04-23T11:16:21.616Z,4.35
2023-04-23T11:19:03.591Z,5.93
2023-04-23T11:22:01.532Z,6.18
2023-04-23T11:24:37.278Z,4.82
2023-04-23T11:27:05.955Z,3.42
2023-04-23T11:29:32.663Z,8.30
2023-04-23T11:32:02.357Z,6.25
2023-04-23T11:34:30.811Z,5.38
2023-04-23T11:36:58.598Z,5.57
2023-04-23T11:39:25.834Z,3.28
2023-04-23T11:41:52.978Z,6.20
2023-04-23T11:44:21.307Z,8.55
2023-04-23T11:46:50.066Z,4.15
2023-04-23T11:49:21.735Z,3.75
2023-04-23T11:51:49.327Z,7.55
2023-04-23T11:54:16.318Z,4.22
2023-04-23T11:56:52.093Z,7.20
2023-04-23T11:59:44.680Z,7.13
2023-04-23T12:02:12.769Z,6.22
2023-04-23T12:04:41.247Z,2.58
2023-04-23T12:10:05.375Z,6.55
2023-04-23T12:12:40.830Z,3.53
2023-04-23T12:15:18.386Z,6.63
2023-04-23T12:17:52.073Z,3.03
2023-04-23T12:20:22.051Z,2.40
2023-04-23T12:22:48.793Z,5.80
2023-04-23T12:25:15.961Z,4.18
2023-04-23T12:27:44.401Z,5.22
2023-04-23T12:30:11.881Z,6.07
2023-04-23T12:32:38.895Z,3.38
2023-04-23T12:35:06.347Z,5.85
2023-04-23T12:37:35.863Z,4.43
2023-04-23T12:40:02.769Z,2.75
2023-04-23T12:42:29.508Z,4.53
2023-04-23T12:45:04.408Z,4.03
2023-04-23T12:47:31.120Z,2.10
2023-04-23T12:49:57.968Z,5.43
2023-04-23T12:52:24.739Z,5.47
2023-04-23T12:54:56.233Z,4.28
2023-04-23T12:57:24.444Z,4.82
2023-04-23T12:59:51.454Z,3.28
2023-04-23T13:02:18.266Z,5.10
2023-04-23T13:04:45.024Z,3.38
2023-04-23T13:07:11.748Z,6.90
2023-04-23T13:09:39.008Z,4.65
2023-04-23T13:12:05.777Z,23.17
2023-04-23T13:14:32.747Z,9.02
2023-04-23T13:16:59.481Z,8.57
2023-04-23T13:19:26.412Z,5.10
2023-04-23T13:21:54.936Z,16.52
2023-04-23T13:24:22.706Z,7.53
2023-04-23T13:26:49.449Z,7.10
2023-04-23T13:29:16.303Z,6.15
2023-04-23T13:31:43.130Z,5.63
2023-04-23T13:34:09.824Z,11.98
2023-04-23T13:36:37.190Z,6.03
2023-04-23T13:39:03.950Z,5.30
2023-04-23T13:41:30.644Z,8.75
2023-04-23T13:43:57.307Z,8.93
2023-04-23T13:46:24.651Z,9.80
2023-04-23T13:48:55.079Z,4.85
2023-04-23T13:51:33.796Z,8.05
2023-04-23T13:54:01.442Z,8.25
2023-04-23T13:56:29.961Z,9.13
2023-04-23T13:59:17.665Z,7.22
2023-04-23T14:01:47.252Z,7.57
2023-04-23T14:04:14.167Z,8.10
2023-04-23T14:06:41.037Z,8.48
2023-04-23T14:09:08.056Z,6.13
2023-04-23T14:11:34.871Z,5.20
2023-04-23T14:14:01.735Z,5.05
2023-04-23T14:16:28.528Z,6.85
2023-04-23T14:18:55.433Z,11.48
2023-04-23T14:21:23.506Z,6.82
2023-04-23T14:23:51.643Z,11.73
2023-04-23T14:26:48.100Z,7.25
2023-04-23T14:29:48.297Z,18.10
2023-04-23T14:32:15.124Z,6.55
2023-04-23T14:34:41.864Z,8.38
2023-04-23T14:37:08.641Z,7.43
2023-04-23T14:39:35.438Z,7.15
2023-04-23T14:42:02.639Z,11.38
2023-04-23T14:44:29.565Z,5.30
2023-04-23T14:46:56.521Z,8.40
2023-04-23T14:49:24.217Z,10.00
2023-04-23T14:51:55.103Z,8.77
2023-04-23T14:54:22.244Z,9.93
2023-04-23T14:56:48.974Z,5.85
2023-04-23T14:59:15.718Z,8.20
2023-04-23T15:01:42.779Z,6.57
2023-04-23T15:04:12.661Z,9.55
2023-04-23T15:06:40.479Z,4.55
2023-04-23T15:09:07.244Z,7.43
2023-04-23T15:11:34.021Z,4.65
2023-04-23T15:14:20.568Z,5.28
2023-04-23T15:16:48.684Z,6.82
2023-04-23T15:19:18.045Z,6.32
2023-04-23T15:21:45.442Z,6.95
2023-04-23T15:24:12.131Z,6.05
2023-04-23T15:26:39.020Z,4.13
2023-04-23T15:29:08.660Z,7.22
2023-04-23T15:31:38.954Z,8.20
2023-04-23T15:34:08.365Z,5.20
2023-04-23T15:36:35.766Z,4.68
2023-04-23T15:39:02.555Z,7.80
2023-04-23T15:41:29.239Z,9.32
2023-04-23T15:43:56.953Z,6.80
2023-04-23T15:46:24.589Z,7.20
2023-04-23T15:48:52.945Z,7.13
2023-04-23T15:51:20.126Z,5.07
2023-04-23T15:53:46.841Z,5.82
2023-04-23T15:56:13.901Z,5.38
2023-04-23T15:58:40.665Z,2.80
2023-04-23T16:01:09.685Z,8.95
2023-04-23T16:03:36.663Z,3.97
2023-04-23T16:06:04.539Z,13.75
2023-04-23T16:08:32.203Z,6.80
2023-04-23T16:10:59.349Z,3.67
2023-04-23T16:13:28.416Z,7.93
2023-04-23T16:15:56.468Z,7.30
2023-04-23T16:18:23.154Z,6.18
2023-04-23T16:20:49.829Z,4.03
2023-04-23T16:23:16.581Z,5.78
2023-04-23T16:25:43.658Z,4.95
2023-04-23T16:28:10.446Z,5.15
2023-04-23T16:30:37.251Z,3.95
2023-04-23T16:33:04.111Z,6.82
2023-04-23T16:35:31.115Z,5.03
2023-04-23T16:37:57.878Z,3.67
2023-04-23T16:40:26.199Z,4.95
2023-04-23T16:42:52.984Z,5.35
2023-04-23T16:45:23.069Z,4.60
2023-04-23T16:47:53.179Z,3.33
2023-04-23T16:50:28.738Z,6.68
2023-04-23T16:52:56.811Z,9.13
2023-04-23T16:55:23.536Z,10.32
2023-04-23T16:57:51.157Z,7.03
2023-04-23T17:00:18.128Z,7.55
2023-04-23T17:02:45.054Z,11.77
2023-04-23T17:05:11.845Z,6.43
2023-04-23T17:07:40.685Z,8.07
2023-04-23T17:10:07.972Z,2.92
2023-04-23T17:12:34.636Z,5.13
2023-04-23T17:15:01.336Z,8.23
2023-04-23T17:17:28.740Z,8.68
2023-04-23T17:19:57.156Z,6.82
2023-04-23T17:22:24.939Z,8.85
2023-04-23T17:24:51.811Z,5.28
2023-04-23T17:27:18.539Z,9.77
2023-04-23T17:29:46.805Z,9.20
2023-04-23T17:32:13.677Z,6.32
2023-04-23T17:34:40.663Z,6.72
2023-04-23T17:37:07.517Z,6.15
2023-04-23T17:39:34.496Z,10.32
2023-04-23T17:42:01.994Z,4.80
2023-04-23T17:44:28.796Z,6.53
2023-04-23T17:46:56.451Z,8.10
2023-04-23T17:49:24.787Z,4.47
2023-04-23T17:51:52.118Z,6.90
2023-04-23T17:54:19.069Z,5.72
2023-04-23T17:56:45.769Z,5.30
2023-04-23T17:59:12.511Z,8.25
2023-04-23T18:01:39.493Z,6.40
2023-04-23T18:04:06.992Z,4.80
2023-04-23T18:06:35.715Z,14.85
2023-04-23T18:09:02.767Z,8.68
2023-04-23T18:11:29.492Z,5.20
2023-04-23T18:13:56.512Z,8.32
2023-04-23T18:16:23.304Z,5.95
2023-04-23T18:18:50.824Z,6.38
2023-04-23T18:21:18.457Z,5.50
2023-04-23T18:23:45.562Z,8.07
2023-04-23T18:26:12.345Z,5.10
2023-04-23T18:28:39.395Z,4.47
2023-04-23T18:31:06.347Z,6.45
2023-04-23T18:33:37.170Z,5.45
2023-04-23T18:36:32.239Z,5.05
2023-04-23T18:38:59.191Z,7.00
2023-04-23T18:41:34.345Z,6.72
2023-04-23T18:44:02.506Z,10.15
2023-04-23T18:46:31.182Z,7.65
2023-04-23T18:49:06.749Z,5.45
2023-04-23T18:51:38.274Z,4.63
2023-04-23T18:54:06.012Z,8.32
2023-04-23T18:56:33.872Z,7.80
2023-04-23T18:59:00.915Z,4.13
2023-04-23T19:01:28.444Z,3.67
2023-04-23T19:03:57.558Z,7.72
2023-04-23T19:06:26.680Z,12.48
2023-04-23T19:08:53.524Z,9.35
2023-04-23T19:11:20.384Z,3.95
2023-04-23T19:13:47.148Z,10.68
2023-04-23T19:16:16.300Z,3.47
2023-04-23T19:18:43.005Z,9.98
2023-04-23T19:21:09.750Z,6.50
2023-04-23T19:23:36.810Z,9.38
2023-04-23T19:26:03.967Z,6.95
2023-04-23T19:28:30.849Z,7.28
2023-04-23T19:30:57.855Z,4.32
2023-04-23T19:33:25.848Z,6.95
2023-04-23T19:35:52.574Z,4.50
2023-04-23T19:38:20.016Z,4.72
2023-04-23T19:40:46.700Z,5.38
2023-04-23T19:43:13.867Z,3.38
2023-04-23T19:45:40.706Z,2.97
2023-04-23T19:48:08.435Z,5.10
2023-04-23T19:50:35.726Z,5.20
2023-04-23T19:53:03.629Z,3.58
2023-04-23T19:55:30.518Z,5.93
2023-04-23T19:57:57.354Z,5.38
2023-04-23T20:00:26.139Z,4.45
2023-04-23T20:02:53.457Z,3.83
2023-04-23T20:05:22.068Z,5.43
2023-04-23T20:07:49.068Z,5.30
2023-04-23T20:10:17.529Z,3.50
2023-04-23T20:12:44.636Z,3.47
2023-04-23T20:15:12.459Z,4.82
2023-04-23T20:17:39.344Z,4.28
2023-04-23T20:20:06.656Z,3.22
2023-04-23T20:22:34.301Z,4.93
2023-04-23T20:25:05.309Z,2.28
2023-04-23T20:27:32.082Z,2.75
2023-04-23T20:29:59.165Z,4.82
2023-04-23T20:32:27.297Z,2.80
2023-04-23T20:34:55.014Z,3.47
2023-04-23T20:37:22.129Z,3.80
2023-04-23T20:39:49.756Z,3.75
2023-04-23T20:42:16.526Z,5.60
2023-04-23T20:44:45.499Z,4.20
2023-04-23T20:47:12.600Z,6.57
2023-04-23T20:49:40.219Z,3.05
2023-04-23T20:52:07.389Z,2.50
2023-04-23T20:54:34.909Z,5.82
2023-04-23T20:57:02.339Z,5.35
2023-04-23T20:59:29.343Z,4.82
2023-04-23T21:01:56.860Z,2.65
2023-04-23T21:04:24.122Z,6.00
2023-04-23T21:06:51.111Z,4.22
2023-04-23T21:09:17.868Z,3.00
2023-04-23T21:11:44.592Z,2.45
2023-04-23T21:14:11.349Z,1.67
2023-04-23T21:16:38.209Z,2.38
2023-04-23T21:19:05.021Z,2.80
2023-04-23T21:21:32.507Z,3.38
2023-04-23T21:24:02.928Z,1.52
2023-04-23T21:26:30.358Z,1.85
2023-04-23T21:28:57.766Z,3.05
2023-04-23T21:31:46.134Z,6.07
2023-04-23T21:34:14.117Z,1.90
2023-04-23T21:36:40.978Z,5.15
2023-04-23T21:39:07.962Z,2.47
2023-04-23T21:41:34.745Z,3.10
2023-04-23T21:44:01.580Z,3.00
2023-04-23T21:46:29.995Z,2.40
2023-04-23T21:48:56.787Z,3.05
2023-04-23T21:51:25.037Z,1.67
2023-04-23T21:53:51.788Z,2.85
2023-04-23T21:56:18.515Z,2.95
2023-04-23T21:58:45.485Z,2.60
2023-04-23T22:01:12.325Z,1.85
2023-04-23T22:03:42.798Z,1.50
2023-04-23T22:06:09.744Z,1.50
2023-04-23T22:08:40.204Z,2.25
2023-04-23T22:11:07.921Z,2.80
2023-04-23T22:13:34.862Z,1.83
2023-04-23T22:16:06.582Z,6.55
2023-04-23T22:18:38.288Z,2.15
2023-04-23T22:21:05.082Z,2.60
2023-04-23T22:23:32.972Z,3.08
2023-04-23T22:25:59.738Z,4.22
2023-04-23T22:28:26.479Z,3.25
2023-04-23T22:30:53.353Z,2.75
2023-04-23T22:33:20.168Z,3.72
2023-04-23T22:35:47.194Z,2.53
2023-04-23T22:38:13.938Z,3.70
2023-04-23T22:40:40.684Z,1.80
2023-04-23T22:43:07.346Z,2.17
2023-04-23T22:45:34.665Z,2.97
2023-04-23T22:48:01.459Z,3.05
2023-04-23T22:50:30.441Z,2.80
2023-04-23T22:52:57.115Z,1.77
2023-04-23T22:55:23.855Z,1.95
2023-04-23T22:57:50.572Z,2.42
2023-04-23T23:00:17.330Z,2.28
2023-04-23T23:02:44.071Z,3.75
2023-04-23T23:05:11.019Z,2.47
2023-04-23T23:07:38.581Z,1.92
2023-04-23T23:10:08.733Z,2.45
2023-04-23T23:12:36.730Z,2.78
2023-04-23T23:15:04.139Z,2.83
2023-04-23T23:17:31.182Z,2.47
2023-04-23T23:19:57.865Z,2.28
2023-04-23T23:22:24.545Z,5.05
2023-04-23T23:24:51.240Z,2.45
2023-04-23T23:27:17.903Z,1.65
2023-04-23T23:29:44.859Z,3.58
2023-04-23T23:32:11.674Z,2.97
2023-04-23T23:34:38.438Z,3.60
2023-04-23T23:37:06.587Z,3.47
2023-04-23T23:39:33.286Z,1.98
2023-04-23T23:42:00.049Z,1.95
2023-04-23T23:44:26.996Z,2.25
2023-04-23T23:46:53.695Z,1.60
2023-04-23T23:49:20.801Z,2.45
2023-04-23T23:51:47.589Z,1.67
2023-04-23T23:54:14.332Z,1.67
2023-04-23T23:56:41.507Z,2.15
2023-04-23T23:59:08.470Z,2.08
